Time;durP1;ratioP1;P1;durP2;ratioP2;P2;SDS_P1;SDS_P2;PMS_P1;PMS_P2;Temp;Humidity;BMP_temperature;BMP_pressure;BME280_temperature;BME280_humidity;BME280_pressure;Samples;Min_cycle;Max_cycle;Signal;HPM_P1;HPM_P2
2022/03/19 00:00:47;;;;;;;14.07;3.53;;;;;;;7.86;99.90;102972.53;5061743;28;20037;-84
2022/03/19 00:03:12;;;;;;;6.50;2.50;;;;;;;7.79;100.00;102984.63;5071010;28;20039;-84
2022/03/19 00:05:38;;;;;;;7.13;2.80;;;;;;;7.52;100.00;102963.22;5071400;28;20029;-87
2022/03/19 00:08:04;;;;;;;7.53;2.65;;;;;;;7.69;100.00;102980.84;5054505;28;20041;-87
2022/03/19 00:10:31;;;;;;;5.18;2.20;;;;;;;7.83;100.00;102978.09;5069630;28;20059;-82
2022/03/19 00:12:58;;;;;;;8.88;2.80;;;;;;;7.80;99.82;102978.28;5056502;28;20036;-85
2022/03/19 00:15:24;;;;;;;8.55;2.63;;;;;;;7.85;99.56;102986.88;5035287;28;20043;-84
2022/03/19 00:17:49;;;;;;;8.73;3.05;;;;;;;7.90;99.51;102989.25;5052709;28;21054;-85
2022/03/19 00:20:15;;;;;;;6.28;2.90;;;;;;;7.87;99.03;102989.47;5033850;28;20062;-84
2022/03/19 00:22:41;;;;;;;6.57;2.72;;;;;;;7.94;98.22;102982.72;5043378;28;20059;-84
2022/03/19 00:25:09;;;;;;;6.75;3.03;;;;;;;7.89;97.94;102976.81;5059429;28;20091;-83
2022/03/19 00:27:34;;;;;;;6.15;2.40;;;;;;;7.79;97.78;102986.44;5060660;28;20568;-81
2022/03/19 00:30:00;;;;;;;7.97;3.17;;;;;;;7.66;98.02;102979.22;5062920;28;20028;-83
2022/03/19 00:32:27;;;;;;;10.27;4.00;;;;;;;7.54;99.33;102984.53;5057953;28;20067;-84
2022/03/19 00:34:52;;;;;;;7.50;3.35;;;;;;;7.44;100.00;102981.63;5050358;28;20033;-86
2022/03/19 00:37:18;;;;;;;13.60;4.53;;;;;;;7.31;100.00;102976.19;5035660;28;20040;-83
2022/03/19 00:39:43;;;;;;;8.65;4.18;;;;;;;7.21;100.00;102972.41;5070180;28;20043;-85
2022/03/19 00:42:10;;;;;;;6.55;3.35;;;;;;;7.18;100.00;102984.16;5047499;28;20390;-85
2022/03/19 00:44:35;;;;;;;11.27;3.47;;;;;;;7.16;100.00;102987.91;5049902;28;20465;-85
2022/03/19 00:47:01;;;;;;;10.13;3.90;;;;;;;7.02;100.00;102972.72;5051045;28;20036;-84
2022/03/19 00:49:26;;;;;;;7.75;3.33;;;;;;;6.99;100.00;102980.97;5063577;28;20145;-84
2022/03/19 00:51:52;;;;;;;11.23;3.72;;;;;;;6.98;100.00;102973.88;5034431;28;20492;-86
2022/03/19 00:54:18;;;;;;;7.88;3.58;;;;;;;7.00;100.00;102978.16;5062083;28;20029;-84
2022/03/19 00:56:45;;;;;;;8.70;3.58;;;;;;;6.98;100.00;102969.38;5050674;28;20047;-87
2022/03/19 00:59:11;;;;;;;9.25;3.63;;;;;;;6.96;100.00;102968.63;5031908;28;20040;-83
2022/03/19 01:01:37;;;;;;;7.50;2.60;;;;;;;6.91;100.00;102973.41;5041084;28;20090;-84
2022/03/19 01:04:02;;;;;;;14.77;4.85;;;;;;;6.87;100.00;102969.22;5059135;28;20151;-83
2022/03/19 01:06:29;;;;;;;9.80;3.85;;;;;;;6.82;100.00;102968.63;5067418;28;20481;-84
2022/03/19 01:08:55;;;;;;;5.72;2.85;;;;;;;6.83;100.00;102965.03;5068680;28;20333;-83
2022/03/19 01:11:23;;;;;;;8.15;2.28;;;;;;;7.04;100.00;102976.19;5028471;28;20155;-85
2022/03/19 01:13:52;;;;;;;3.42;2.45;;;;;;;7.18;100.00;102964.56;5064273;28;20021;-86
2022/03/19 01:16:19;;;;;;;6.40;2.40;;;;;;;7.25;100.00;102973.91;5063918;28;20036;-86
2022/03/19 01:18:51;;;;;;;7.18;3.35;;;;;;;7.17;99.38;102950.34;5062808;28;20074;-85
2022/03/19 01:21:18;;;;;;;6.30;3.20;;;;;;;7.21;99.80;102946.50;5034212;28;20090;-86
2022/03/19 01:23:44;;;;;;;8.85;2.95;;;;;;;7.33;98.55;102963.59;5063965;28;20033;-83
2022/03/19 01:26:10;;;;;;;8.88;3.50;;;;;;;7.17;98.58;102952.13;5059423;28;20072;-83
2022/03/19 01:28:36;;;;;;;7.75;3.53;;;;;;;7.11;99.29;102957.91;5043417;28;20100;-87
2022/03/19 01:31:02;;;;;;;7.65;3.00;;;;;;;7.09;99.45;102941.06;5065751;28;20036;-85
2022/03/19 01:33:28;;;;;;;9.05;3.17;;;;;;;7.15;99.47;102943.38;5047170;28;20036;-84
2022/03/19 01:35:54;;;;;;;9.48;5.15;;;;;;;7.11;98.89;102950.72;5046341;28;20123;-86
2022/03/19 01:38:19;;;;;;;10.65;4.80;;;;;;;6.95;99.86;102918.75;5045944;28;20116;-84
2022/03/19 01:40:45;;;;;;;13.05;4.72;;;;;;;6.95;99.57;102917.91;5050266;28;20413;-86
2022/03/19 01:43:11;;;;;;;11.18;4.82;;;;;;;6.90;100.00;102938.75;5067900;28;20028;-86
2022/03/19 01:45:36;;;;;;;6.47;2.95;;;;;;;7.01;100.00;102914.81;5064478;28;20058;-84
2022/03/19 01:48:04;;;;;;;10.07;3.33;;;;;;;7.03;100.00;102910.25;5050748;28;20036;-85
2022/03/19 01:50:30;;;;;;;8.52;3.70;;;;;;;6.86;100.00;102889.09;5051137;28;20040;-85
2022/03/19 01:52:56;;;;;;;10.52;3.30;;;;;;;6.78;100.00;102908.31;5049657;28;20048;-85
2022/03/19 01:55:24;;;;;;;10.18;2.83;;;;;;;6.60;100.00;102911.19;5061106;28;20028;-85
2022/03/19 01:57:50;;;;;;;11.15;4.13;;;;;;;6.48;100.00;102908.41;5029025;28;20036;-86
2022/03/19 02:00:18;;;;;;;10.68;3.15;;;;;;;6.35;100.00;102906.53;5050974;28;20035;-84
2022/03/19 02:02:46;;;;;;;10.80;3.40;;;;;;;6.23;100.00;102898.41;5047017;28;20149;-87
2022/03/19 02:05:14;;;;;;;9.20;2.85;;;;;;;6.10;100.00;102895.63;5030006;28;20043;-85
2022/03/19 02:07:41;;;;;;;13.77;3.92;;;;;;;6.32;100.00;102895.16;5066522;28;20093;-83
2022/03/19 02:10:07;;;;;;;9.73;4.43;;;;;;;6.55;100.00;102886.56;5073653;28;20036;-86
2022/03/19 02:12:33;;;;;;;7.28;3.33;;;;;;;6.63;100.00;102886.06;5050883;28;20033;-86
2022/03/19 02:14:58;;;;;;;9.48;3.85;;;;;;;6.64;100.00;102886.94;5047875;28;20098;-87
2022/03/19 02:17:24;;;;;;;6.80;3.75;;;;;;;6.64;100.00;102890.44;5063232;28;20036;-84
2022/03/19 02:19:52;;;;;;;5.90;3.25;;;;;;;6.57;100.00;102881.97;5026352;28;20044;-85
2022/03/19 02:22:19;;;;;;;5.03;2.78;;;;;;;6.59;100.00;102888.09;5058289;28;20138;-85
2022/03/19 02:27:32;;;;;;;6.78;3.22;;;;;;;6.72;100.00;102884.63;5046245;28;20054;-84
2022/03/19 02:29:58;;;;;;;14.23;3.70;;;;;;;7.02;100.00;102887.13;5049819;28;20041;-85
2022/03/19 02:32:27;;;;;;;10.77;4.07;;;;;;;7.10;100.00;102886.63;5031240;28;20052;-85
2022/03/19 02:34:53;;;;;;;8.48;2.72;;;;;;;7.21;99.93;102878.75;5065677;28;20075;-85
2022/03/19 02:37:19;;;;;;;6.70;3.75;;;;;;;7.22;98.31;102873.31;5059803;28;20064;-87
2022/03/19 02:39:45;;;;;;;7.43;3.53;;;;;;;7.07;98.08;102871.66;5066326;28;20394;-86
2022/03/19 02:42:16;;;;;;;9.23;3.42;;;;;;;6.88;98.33;102861.31;5048439;28;20086;-85
2022/03/19 02:44:41;;;;;;;10.10;3.63;;;;;;;6.58;99.54;102869.47;5045863;28;20055;-86
2022/03/19 02:47:07;;;;;;;7.90;3.55;;;;;;;6.20;99.75;102858.53;5051179;28;20055;-85
2022/03/19 02:49:35;;;;;;;6.28;3.58;;;;;;;5.96;100.00;102856.44;5065845;28;20449;-85
2022/03/19 02:52:02;;;;;;;8.07;3.58;;;;;;;5.69;100.00;102851.78;5034273;28;20519;-84
2022/03/19 02:54:31;;;;;;;9.18;3.22;;;;;;;5.47;100.00;102849.53;5051109;28;20025;-83
2022/03/19 02:56:58;;;;;;;7.90;3.15;;;;;;;5.37;100.00;102850.16;5064052;28;20040;-87
2022/03/19 02:59:29;;;;;;;11.07;3.80;;;;;;;5.26;100.00;102834.78;5062218;28;20163;-84
2022/03/19 03:01:59;;;;;;;8.00;3.80;;;;;;;5.09;100.00;102845.59;5030901;28;20033;-86
2022/03/19 03:04:26;;;;;;;10.48;3.90;;;;;;;5.10;100.00;102834.84;5065816;28;20519;-85
2022/03/19 03:06:53;;;;;;;7.55;3.42;;;;;;;5.25;100.00;102836.63;5043488;28;20111;-85
2022/03/19 03:09:20;;;;;;;9.30;3.90;;;;;;;5.35;100.00;102831.59;5065827;28;20028;-85
2022/03/19 03:11:46;;;;;;;9.38;3.85;;;;;;;5.44;100.00;102823.03;5030890;28;20102;-86
2022/03/19 03:14:13;;;;;;;10.30;3.55;;;;;;;5.48;100.00;102840.59;5054959;28;20056;-86
2022/03/19 03:16:40;;;;;;;6.68;3.53;;;;;;;5.57;100.00;102823.16;5067463;28;20044;-87
2022/03/19 03:19:07;;;;;;;5.85;2.80;;;;;;;5.81;100.00;102833.31;5069531;28;20028;-84
2022/03/19 03:21:34;;;;;;;8.13;3.63;;;;;;;5.77;100.00;102824.63;5077063;28;20024;-85
2022/03/19 03:24:00;;;;;;;6.10;2.97;;;;;;;5.70;100.00;102821.47;5035170;28;20028;-86
2022/03/19 03:26:25;;;;;;;4.95;2.63;;;;;;;5.73;100.00;102817.75;5069558;28;20039;-86
2022/03/19 03:28:51;;;;;;;6.32;3.72;;;;;;;5.83;100.00;102823.41;5030677;28;20055;-85
2022/03/19 03:31:18;;;;;;;4.82;2.85;;;;;;;5.90;100.00;102814.03;5030110;28;20040;-85
2022/03/19 03:33:43;;;;;;;6.78;2.72;;;;;;;5.90;99.32;102803.34;5045190;28;20508;-88
2022/03/19 03:36:09;;;;;;;5.93;2.25;;;;;;;6.18;98.74;102799.00;5059199;28;20025;-84
2022/03/19 03:38:35;;;;;;;8.13;3.88;;;;;;;6.32;96.11;102790.97;5055539;28;20035;-85
2022/03/19 03:41:00;;;;;;;6.68;3.10;;;;;;;6.38;94.91;102796.78;5053952;28;20506;-84
2022/03/19 03:43:26;;;;;;;6.90;2.85;;;;;;;6.28;95.33;102787.63;5035706;28;20031;-85
2022/03/19 03:45:51;;;;;;;7.95;3.00;;;;;;;6.24;95.59;102786.09;5052082;28;20043;-84
2022/03/19 03:48:17;;;;;;;7.57;3.40;;;;;;;6.10;95.89;102776.31;5066395;28;20037;-86
2022/03/19 03:50:43;;;;;;;12.40;3.97;;;;;;;6.14;96.37;102790.34;5071828;28;20028;-85
2022/03/19 03:53:09;;;;;;;6.65;2.80;;;;;;;6.04;95.95;102795.41;5036664;28;20474;-87
2022/03/19 03:55:36;;;;;;;3.08;1.88;;;;;;;5.68;95.60;102767.31;5066490;28;20044;-87
2022/03/19 03:58:04;;;;;;;8.15;3.40;;;;;;;5.54;97.72;102780.66;5055847;28;20040;-86
2022/03/19 04:00:31;;;;;;;4.60;2.75;;;;;;;5.31;99.07;102763.38;5052860;28;20036;-86
2022/03/19 04:02:56;;;;;;;5.80;2.85;;;;;;;5.37;99.71;102789.69;5038340;28;20546;-84
2022/03/19 04:05:25;;;;;;;5.50;3.10;;;;;;;5.25;99.36;102763.75;5058513;28;20119;-83
2022/03/19 04:07:51;;;;;;;8.43;3.83;;;;;;;5.11;98.94;102769.91;5067226;28;20032;-86
2022/03/19 04:10:17;;;;;;;9.73;3.78;;;;;;;4.78;99.41;102768.25;5052384;28;20035;-84
2022/03/19 04:12:44;;;;;;;7.10;3.15;;;;;;;4.46;100.00;102782.56;5064548;28;20036;-84
2022/03/19 04:15:10;;;;;;;3.72;2.38;;;;;;;4.53;100.00;102766.16;5066710;28;20056;-85
2022/03/19 04:17:36;;;;;;;5.25;3.33;;;;;;;4.78;100.00;102765.59;5033974;28;20047;-87
2022/03/19 04:20:05;;;;;;;10.27;3.65;;;;;;;4.92;100.00;102742.59;5050296;28;20390;-84
2022/03/19 04:22:42;;;;;;;5.07;2.90;;;;;;;5.01;100.00;102744.72;5033004;28;20032;-84
2022/03/19 04:25:16;;;;;;;6.75;3.22;;;;;;;5.11;100.00;102761.91;5062989;28;20093;-87
2022/03/19 04:27:44;;;;;;;6.43;3.53;;;;;;;5.07;100.00;102757.69;5047391;28;20025;-84
2022/03/19 04:30:14;;;;;;;8.00;3.80;;;;;;;5.19;100.00;102761.44;5047780;28;20075;-85
2022/03/19 04:32:45;;;;;;;9.95;3.80;;;;;;;5.03;98.97;102766.84;5064347;28;20036;-83
2022/03/19 04:38:20;;;;;;;6.38;3.05;;;;;;;4.87;100.00;102750.00;5054157;28;20386;-87
2022/03/19 04:40:48;;;;;;;8.13;3.72;;;;;;;5.28;100.00;102761.75;5083863;28;20043;-86
2022/03/19 04:43:14;;;;;;;8.07;3.35;;;;;;;5.43;98.25;102761.78;5066383;28;20043;-86
2022/03/19 04:45:41;;;;;;;4.57;3.20;;;;;;;5.39;96.32;102749.56;5050461;28;20040;-86
2022/03/19 04:48:08;;;;;;;8.27;3.50;;;;;;;5.21;96.36;102757.75;5068117;28;20034;-85
2022/03/19 04:50:40;;;;;;;8.25;3.85;;;;;;;5.12;98.19;102746.75;5083493;28;20154;-87
2022/03/19 04:53:07;;;;;;;11.35;4.25;;;;;;;5.03;97.51;102743.69;5066794;28;20028;-85
2022/03/19 04:55:34;;;;;;;3.95;2.88;;;;;;;5.26;98.19;102752.13;5065906;28;20032;-85
2022/03/19 04:57:59;;;;;;;3.28;3.00;;;;;;;5.48;96.43;102733.88;5033789;28;20043;-85
2022/03/19 05:00:25;;;;;;;6.97;4.05;;;;;;;5.45;95.45;102728.72;5033032;28;20028;-85
2022/03/19 05:02:50;;;;;;;9.45;4.53;;;;;;;5.78;94.52;102718.72;5052015;28;20041;-84
2022/03/19 05:05:17;;;;;;;9.35;4.93;;;;;;;5.71;94.06;102728.91;5068067;28;20028;-85
2022/03/19 05:07:42;;;;;;;9.23;3.90;;;;;;;5.50;95.34;102723.97;5032927;28;20044;-85
2022/03/19 05:12:53;;;;;;;8.27;3.90;;;;;;;5.34;95.06;102708.97;5064252;28;20059;-84
2022/03/19 05:15:18;;;;;;;11.90;3.78;;;;;;;5.16;95.75;102717.16;5067315;28;20485;-84
2022/03/19 05:17:44;;;;;;;8.90;4.85;;;;;;;4.98;98.14;102692.44;5029328;28;20146;-84
2022/03/19 05:20:11;;;;;;;7.25;3.83;;;;;;;5.29;97.37;102714.59;5029322;28;20040;-85
2022/03/19 05:22:37;;;;;;;10.07;5.88;;;;;;;5.43;96.49;102706.59;5044827;28;20493;-84
2022/03/19 05:25:04;;;;;;;16.25;5.35;;;;;;;5.52;95.80;102713.19;5050967;28;20437;-86
2022/03/19 05:27:30;;;;;;;10.20;3.95;;;;;;;5.54;95.01;102697.94;5050110;28;20040;-86
2022/03/19 05:29:56;;;;;;;5.68;3.55;;;;;;;5.66;93.77;102693.63;5050160;28;20355;-85
2022/03/19 05:32:22;;;;;;;8.25;4.65;;;;;;;6.07;93.06;102700.88;5052054;28;20505;-86
2022/03/19 05:34:48;;;;;;;9.98;4.38;;;;;;;6.02;90.89;102701.16;5064582;28;20036;-85
2022/03/19 05:37:14;;;;;;;9.85;5.53;;;;;;;5.69;92.39;102667.63;5030608;28;20017;-85
2022/03/19 05:39:40;;;;;;;9.98;4.03;;;;;;;5.65;92.85;102678.59;5062710;28;20033;-85
2022/03/19 05:42:06;;;;;;;10.77;4.20;;;;;;;5.70;93.69;102690.69;5039290;28;20397;-84
2022/03/19 05:44:32;;;;;;;9.07;5.03;;;;;;;5.63;94.30;102689.34;5051130;28;20635;-82
2022/03/19 05:46:58;;;;;;;10.30;5.22;;;;;;;5.49;94.54;102692.88;5063697;28;20777;-83
2022/03/19 05:49:25;;;;;;;8.15;3.92;;;;;;;5.24;95.50;102674.88;5052138;28;20068;-84
2022/03/19 05:51:51;;;;;;;14.05;7.13;;;;;;;5.26;96.60;102678.28;5045203;28;20083;-86
2022/03/19 05:54:17;;;;;;;13.25;6.75;;;;;;;5.21;96.64;102676.84;5066228;28;20032;-86
2022/03/19 05:56:43;;;;;;;10.85;5.60;;;;;;;5.25;97.04;102689.91;5051037;28;20230;-85
2022/03/19 05:59:08;;;;;;;8.65;5.05;;;;;;;5.38;96.52;102668.69;5044185;28;20567;-85
2022/03/19 06:01:35;;;;;;;7.38;4.60;;;;;;;5.44;95.46;102654.94;5049737;28;20182;-86
2022/03/19 06:04:00;;;;;;;7.28;3.90;;;;;;;5.60;94.90;102676.19;5069555;28;20068;-85
2022/03/19 06:06:27;;;;;;;11.60;4.70;;;;;;;5.35;95.77;102644.03;5030537;28;20063;-86
2022/03/19 06:08:53;;;;;;;10.30;4.32;;;;;;;5.37;94.64;102660.75;5066680;28;20114;-84
2022/03/19 06:11:19;;;;;;;12.98;6.50;;;;;;;5.14;96.03;102676.38;5064850;28;20063;-85
2022/03/19 06:13:44;;;;;;;10.77;4.72;;;;;;;4.84;96.76;102669.28;5046201;28;20036;-88
2022/03/19 06:16:10;;;;;;;12.65;6.25;;;;;;;4.55;98.70;102660.34;5065192;28;20150;-85
2022/03/19 06:18:36;;;;;;;11.15;5.95;;;;;;;4.33;99.46;102662.53;5049629;28;20050;-85
2022/03/19 06:21:02;;;;;;;13.15;6.50;;;;;;;4.37;100.00;102666.75;5048527;28;20040;-85
2022/03/19 06:23:28;;;;;;;11.88;6.05;;;;;;;4.33;100.00;102663.41;5062925;28;20070;-86
2022/03/19 06:25:53;;;;;;;12.60;6.55;;;;;;;4.65;100.00;102663.31;5030826;28;20359;-86
2022/03/19 06:28:19;;;;;;;11.75;6.13;;;;;;;4.80;100.00;102667.75;5060580;28;20069;-85
2022/03/19 06:30:45;;;;;;;10.10;5.18;;;;;;;4.86;99.98;102663.84;5044313;28;20036;-85
2022/03/19 06:33:13;;;;;;;16.52;6.35;;;;;;;4.79;99.95;102665.16;5032342;28;20543;-84
2022/03/19 06:38:26;;;;;;;15.23;6.35;;;;;;;4.45;100.00;102671.66;5045843;28;20040;-84
2022/03/19 06:40:51;;;;;;;13.25;7.18;;;;;;;4.51;100.00;102657.97;5052762;28;20040;-84
2022/03/19 06:43:17;;;;;;;13.45;6.72;;;;;;;4.34;100.00;102669.56;5065363;28;20036;-82
2022/03/19 06:45:43;;;;;;;8.95;5.05;;;;;;;4.64;100.00;102656.28;5041825;28;20036;-83
2022/03/19 06:48:08;;;;;;;9.90;5.82;;;;;;;4.95;99.84;102663.31;5033745;28;20024;-85
2022/03/19 06:50:34;;;;;;;11.32;5.43;;;;;;;5.32;98.16;102669.06;5054823;28;20246;-84
2022/03/19 06:53:02;;;;;;;6.30;4.22;;;;;;;5.40;96.12;102656.13;5068270;28;20037;-85
2022/03/19 06:55:27;;;;;;;14.27;7.03;;;;;;;5.24;95.94;102656.22;5071248;28;20028;-84
2022/03/19 06:57:53;;;;;;;13.77;6.97;;;;;;;4.99;97.20;102642.66;5071250;28;20131;-85
2022/03/19 07:00:19;;;;;;;13.50;7.07;;;;;;;4.90;97.50;102645.88;5066773;28;20036;-85
2022/03/19 07:02:48;;;;;;;15.43;8.63;;;;;;;4.83;98.34;102632.06;5051903;28;20059;-85
2022/03/19 07:05:25;;;;;;;4.00;3.47;;;;;;;4.92;99.22;102649.28;5072108;28;20025;-85
2022/03/19 07:07:51;;;;;;;12.68;7.03;;;;;;;5.05;98.23;102650.25;5068736;28;20076;-85
2022/03/19 07:10:19;;;;;;;12.52;6.55;;;;;;;5.09;97.57;102640.28;5042549;28;21078;-86
2022/03/19 07:12:49;;;;;;;12.45;6.60;;;;;;;5.04;96.79;102648.56;5026364;28;20032;-85
2022/03/19 07:15:24;;;;;;;14.60;7.50;;;;;;;5.04;97.12;102648.56;5073769;28;20055;-83
2022/03/19 07:17:50;;;;;;;13.52;6.80;;;;;;;4.91;96.80;102605.78;5031551;28;20040;-85
2022/03/19 07:20:16;;;;;;;14.43;6.68;;;;;;;5.32;96.08;102641.53;5061107;28;20107;-87
2022/03/19 07:22:51;;;;;;;12.75;6.47;;;;;;;5.50;96.31;102627.03;5044763;28;20035;-82
2022/03/19 07:25:19;;;;;;;19.55;7.30;;;;;;;6.17;92.35;102624.53;5044775;28;20489;-86
2022/03/19 07:27:45;;;;;;;9.18;5.78;;;;;;;6.56;89.89;102629.03;5022135;28;20513;-84
2022/03/19 07:30:11;;;;;;;14.68;7.28;;;;;;;6.86;87.70;102632.38;5048332;28;20028;-83
2022/03/19 07:32:37;;;;;;;13.88;8.07;;;;;;;7.18;86.03;102609.59;5025863;28;20064;-87
2022/03/19 07:35:04;;;;;;;15.23;8.18;;;;;;;7.45;84.64;102630.84;5047400;28;20055;-87
2022/03/19 07:37:30;;;;;;;14.50;6.88;;;;;;;7.69;82.82;102616.66;5032235;28;20024;-87
2022/03/19 07:39:56;;;;;;;14.90;7.60;;;;;;;7.84;81.78;102615.56;5046037;28;20042;-87
2022/03/19 07:42:22;;;;;;;14.85;7.70;;;;;;;8.14;79.58;102608.91;5028956;28;20035;-85
2022/03/19 07:44:48;;;;;;;13.25;5.93;;;;;;;8.46;77.20;102611.84;5051344;28;20036;-84
2022/03/19 07:47:14;;;;;;;14.15;6.20;;;;;;;8.95;74.87;102601.88;5048359;28;20052;-86
2022/03/19 07:49:43;;;;;;;14.25;7.03;;;;;;;9.62;71.14;102584.88;5062071;28;20473;-85
2022/03/19 07:52:09;;;;;;;12.93;5.97;;;;;;;10.70;66.37;102591.09;5045089;28;20684;-85
2022/03/19 07:54:36;;;;;;;10.93;5.68;;;;;;;11.78;62.10;102589.72;5061980;28;20043;-83
2022/03/19 07:57:03;;;;;;;10.93;7.07;;;;;;;12.91;56.45;102581.88;5042892;28;20064;-86
2022/03/19 07:59:29;;;;;;;13.13;6.22;;;;;;;13.62;53.68;102592.09;5043720;28;20174;-88
2022/03/19 08:01:54;;;;;;;11.55;6.95;;;;;;;14.14;51.54;102586.06;5059039;28;20105;-84
2022/03/19 08:04:20;;;;;;;8.10;6.32;;;;;;;14.51;48.93;102569.63;5046400;28;20044;-89
2022/03/19 08:06:46;;;;;;;8.95;5.05;;;;;;;14.84;48.39;102567.16;5032275;28;20068;-84
2022/03/19 08:09:12;;;;;;;10.85;6.55;;;;;;;15.11;47.79;102576.13;5066610;28;20057;-88
2022/03/19 08:11:39;;;;;;;11.88;7.20;;;;;;;15.25;46.85;102553.00;5063708;28;21446;-85
2022/03/19 08:14:05;;;;;;;11.93;6.50;;;;;;;15.57;46.48;102560.41;5072689;28;20097;-87
2022/03/19 08:16:31;;;;;;;9.48;5.75;;;;;;;15.81;44.74;102557.78;5069417;28;20031;-83
2022/03/19 08:18:59;;;;;;;14.18;6.85;;;;;;;15.91;44.84;102541.38;5062919;28;20037;-87
2022/03/19 08:21:24;;;;;;;13.95;7.07;;;;;;;16.27;44.39;102528.34;5052358;28;20466;-85
2022/03/19 08:23:50;;;;;;;14.02;7.57;;;;;;;16.64;43.12;102535.03;5062451;28;20051;-88
2022/03/19 08:26:15;;;;;;;17.23;6.78;;;;;;;16.93;41.54;102522.78;5034468;28;20048;-86
2022/03/19 08:28:41;;;;;;;12.60;7.00;;;;;;;17.22;41.36;102524.03;5034310;28;20036;-88
2022/03/19 08:31:07;;;;;;;14.93;7.25;;;;;;;17.29;40.33;102528.59;5065691;28;20511;-86
2022/03/19 08:33:32;;;;;;;11.20;5.72;;;;;;;17.36;40.13;102516.00;5052975;28;20103;-89
2022/03/19 08:35:58;;;;;;;12.07;7.25;;;;;;;17.61;39.62;102523.16;5058906;28;20032;-89
2022/03/19 08:41:11;;;;;;;11.20;5.32;;;;;;;17.99;38.01;102478.72;5068000;28;20082;-88
2022/03/19 08:43:37;;;;;;;10.05;5.60;;;;;;;18.03;37.53;102511.84;5030010;28;20036;-89
2022/03/19 08:46:03;;;;;;;13.00;6.38;;;;;;;18.23;36.94;102506.72;5027536;28;21747;-90
2022/03/19 08:48:28;;;;;;;8.50;4.88;;;;;;;18.25;36.31;102501.94;5046315;28;20032;-86
2022/03/19 08:51:39;;;;;;;15.40;7.85;;;;;;;18.33;36.40;102499.13;5049496;28;20089;-90
2022/03/19 08:53:40;;;;;;;11.55;5.72;;;;;;;18.79;36.19;102514.56;5056718;28;20361;-87
2022/03/19 08:56:05;;;;;;;12.40;6.55;;;;;;;19.06;35.40;102491.22;5054143;28;20107;-88
2022/03/19 08:58:31;;;;;;;7.20;5.10;;;;;;;19.34;34.32;102499.53;5032835;28;20359;-87
2022/03/19 09:00:57;;;;;;;10.88;5.45;;;;;;;19.15;34.57;102500.13;5055865;28;20120;-88
2022/03/19 09:03:26;;;;;;;10.48;4.45;;;;;;;19.27;33.54;102487.72;5069801;28;20036;-87
2022/03/19 09:05:52;;;;;;;9.02;4.43;;;;;;;19.45;32.74;102487.28;5028082;28;20036;-88
2022/03/19 09:08:18;;;;;;;9.40;5.28;;;;;;;19.36;32.74;102502.06;5041173;28;20452;-90
2022/03/19 09:10:43;;;;;;;8.80;4.80;;;;;;;19.27;32.89;102501.34;5056738;28;20625;-91
2022/03/19 09:13:09;;;;;;;11.20;6.15;;;;;;;19.50;33.56;102491.13;5031296;28;20503;-90
2022/03/19 09:15:35;;;;;;;9.60;5.05;;;;;;;19.96;31.82;102495.41;5050682;28;20063;-90
2022/03/19 09:18:05;;;;;;;5.65;4.43;;;;;;;19.89;30.80;102489.88;5026058;28;20078;-88
2022/03/19 09:20:34;;;;;;;8.45;4.40;;;;;;;19.75;30.69;102491.63;5040128;28;20387;-88
2022/03/19 09:23:03;;;;;;;11.13;5.00;;;;;;;19.71;31.24;102487.63;5029021;28;20493;-84
2022/03/19 09:25:29;;;;;;;10.52;4.95;;;;;;;20.13;30.77;102501.41;5070589;28;21904;-87
2022/03/19 09:27:54;;;;;;;10.77;4.70;;;;;;;20.11;29.90;102482.53;5058920;28;20033;-86
2022/03/19 09:30:20;;;;;;;9.95;4.90;;;;;;;20.20;30.08;102475.03;5058106;28;20032;-87
2022/03/19 09:32:46;;;;;;;7.07;4.50;;;;;;;20.63;29.11;102489.41;5043965;28;20032;-85
2022/03/19 09:35:11;;;;;;;6.90;4.25;;;;;;;20.49;28.55;102484.91;5059462;28;20495;-86
2022/03/19 09:37:37;;;;;;;7.70;4.75;;;;;;;20.61;28.45;102471.53;5063122;28;20063;-86
2022/03/19 09:40:04;;;;;;;9.43;4.90;;;;;;;20.63;28.98;102478.50;5073357;28;20131;-88
2022/03/19 09:42:29;;;;;;;10.68;4.78;;;;;;;20.45;28.61;102474.56;5051163;28;20037;-90
2022/03/19 09:44:55;;;;;;;7.13;4.32;;;;;;;20.55;28.86;102480.53;5070458;28;20493;-86
2022/03/19 09:47:21;;;;;;;9.90;4.90;;;;;;;20.58;28.57;102480.97;5032431;28;20045;-89
2022/03/19 09:49:48;;;;;;;8.50;5.05;;;;;;;20.86;28.33;102460.97;5061779;28;20064;-86
2022/03/19 09:52:14;;;;;;;10.32;5.15;;;;;;;21.01;27.43;102467.13;5070047;28;20112;-87
2022/03/19 09:54:41;;;;;;;10.32;5.38;;;;;;;20.73;27.92;102482.75;5034233;28;20076;-85
2022/03/19 09:57:07;;;;;;;8.40;5.22;;;;;;;20.67;28.16;102464.41;5064118;28;20021;-86
2022/03/19 09:59:36;;;;;;;9.20;5.72;;;;;;;20.59;28.43;102463.56;5049940;28;20059;-85
2022/03/19 10:02:07;;;;;;;10.32;5.40;;;;;;;20.47;28.31;102447.88;5067448;28;20458;-88
2022/03/19 10:04:32;;;;;;;9.20;5.75;;;;;;;20.71;28.74;102424.72;5027623;28;20036;-82
2022/03/19 10:09:47;;;;;;;6.65;4.28;;;;;;;20.95;28.57;102443.31;5052112;28;20123;-88
2022/03/19 10:12:33;;;;;;;9.02;5.05;;;;;;;21.16;28.04;102438.78;5060297;28;20075;-82
2022/03/19 10:15:00;;;;;;;10.00;5.85;;;;;;;20.75;27.48;102431.47;5061740;28;20112;-85
2022/03/19 10:17:33;;;;;;;9.82;4.80;;;;;;;20.93;29.08;102447.31;5073424;28;20037;-87
2022/03/19 10:20:10;;;;;;;13.98;6.47;;;;;;;21.05;28.80;102434.75;5051651;28;20402;-86
2022/03/19 10:22:44;;;;;;;9.82;5.72;;;;;;;21.21;28.15;102417.13;5051729;28;20040;-87
2022/03/19 10:25:12;;;;;;;15.60;6.25;;;;;;;21.21;28.37;102426.16;5049972;28;20111;-86
2022/03/19 10:27:40;;;;;;;10.43;6.88;;;;;;;21.42;28.10;102438.03;5049368;28;20191;-88
2022/03/19 10:30:19;;;;;;;17.85;6.80;;;;;;;21.57;28.01;102415.97;5051383;28;20037;-86
2022/03/19 10:32:58;;;;;;;16.10;8.23;;;;;;;21.72;28.12;102420.19;5068986;28;20048;-87
2022/03/19 10:35:26;;;;;;;11.90;6.95;;;;;;;22.04;27.94;102408.59;5075634;28;20474;-86
2022/03/19 10:37:52;;;;;;;14.75;7.15;;;;;;;22.39;27.38;102426.50;5051989;28;20032;-79
2022/03/19 10:40:18;;;;;;;14.90;7.88;;;;;;;22.42;27.24;102405.19;5069667;28;20021;-82
2022/03/19 10:42:44;;;;;;;19.63;9.23;;;;;;;22.60;27.07;102413.59;5069593;28;20143;-80
2022/03/19 10:45:12;;;;;;;20.05;8.88;;;;;;;22.66;27.77;102407.22;5065610;28;20032;-79
2022/03/19 10:47:40;;;;;;;17.75;8.40;;;;;;;22.79;26.91;102357.81;5052280;28;20549;-79
2022/03/19 10:50:05;;;;;;;18.08;9.35;;;;;;;23.05;26.20;102405.41;5070471;28;20103;-83
2022/03/19 10:52:31;;;;;;;13.90;8.68;;;;;;;22.95;26.61;102394.03;5068690;28;20162;-80
2022/03/19 10:54:58;;;;;;;18.73;9.48;;;;;;;22.87;26.17;102366.84;5069484;28;20041;-81
2022/03/19 10:57:23;;;;;;;19.77;7.95;;;;;;;23.11;26.35;102376.25;5052643;28;20462;-82
2022/03/19 10:59:49;;;;;;;12.55;7.47;;;;;;;22.89;25.98;102392.13;5070525;28;20073;-81
2022/03/19 11:02:16;;;;;;;16.15;8.90;;;;;;;22.92;26.29;102391.72;5065411;28;20381;-82
2022/03/19 11:04:42;;;;;;;22.05;9.20;;;;;;;23.24;25.73;102393.47;5069259;28;20043;-81
2022/03/19 11:07:08;;;;;;;20.27;7.90;;;;;;;23.67;25.08;102397.38;5052490;28;20101;-82
2022/03/19 11:09:35;;;;;;;20.02;9.48;;;;;;;23.41;24.77;102384.69;5056883;28;20024;-82
2022/03/19 11:12:02;;;;;;;29.35;11.13;;;;;;;23.49;25.45;102387.16;5073727;28;20394;-80
2022/03/19 11:14:29;;;;;;;27.25;11.38;;;;;;;23.54;25.33;102375.50;5073495;28;20035;-81
2022/03/19 11:17:24;;;;;;;15.88;9.00;;;;;;;24.08;24.90;102369.38;5068928;28;20124;-82
2022/03/19 11:20:01;;;;;;;22.58;11.90;;;;;;;23.60;24.30;102358.97;5076296;28;20541;-81
2022/03/19 11:22:41;;;;;;;25.25;12.60;;;;;;;23.27;24.59;102356.50;5056592;28;20044;-81
2022/03/19 11:25:16;;;;;;;31.00;14.02;;;;;;;23.44;24.98;102370.50;5040193;28;20305;-82
2022/03/19 11:27:45;;;;;;;31.10;14.80;;;;;;;23.74;24.32;102351.53;5058751;28;20553;-80
2022/03/19 11:30:24;;;;;;;39.92;16.45;;;;;;;22.71;26.30;102358.06;5052263;28;20039;-80
2022/03/19 11:33:01;;;;;;;27.63;13.98;;;;;;;21.54;27.59;102358.88;5052236;28;20052;-78
2022/03/19 11:35:27;;;;;;;19.50;9.57;;;;;;;20.42;28.52;102356.41;5063484;28;20170;-83
2022/03/19 11:38:00;;;;;;;23.70;10.43;;;;;;;19.59;29.34;102352.69;5063191;28;20032;-79
2022/03/19 11:40:31;;;;;;;16.48;9.38;;;;;;;19.54;30.00;102327.88;5058947;28;20032;-83